sensor_id;sensor_type;location;lat;lon;timestamp;P1;durP1;ratioP1;P2;durP2;ratioP2
27939;SDS011;15275;51.716;14.324;2023-05-20T00:00:29;8.88;;;4.57;;
27939;SDS011;15275;51.716;14.324;2023-05-20T00:02:55;6.47;;;4.43;;
27939;SDS011;15275;51.716;14.324;2023-05-20T00:05:21;7.10;;;4.40;;
27939;SDS011;15275;51.716;14.324;2023-05-20T00:07:48;6.90;;;4.90;;
27939;SDS011;15275;51.716;14.324;2023-05-20T00:10:13;8.20;;;5.13;;
27939;SDS011;15275;51.716;14.324;2023-05-20T00:12:39;8.23;;;4.80;;
27939;SDS011;15275;51.716;14.324;2023-05-20T00:15:05;11.75;;;5.13;;
27939;SDS011;15275;51.716;14.324;2023-05-20T00:17:32;6.15;;;4.50;;
27939;SDS011;15275;51.716;14.324;2023-05-20T00:19:58;7.88;;;4.88;;
27939;SDS011;15275;51.716;14.324;2023-05-20T00:22:24;8.93;;;5.60;;
27939;SDS011;15275;51.716;14.324;2023-05-20T00:24:50;10.15;;;5.28;;
27939;SDS011;15275;51.716;14.324;2023-05-20T00:27:16;11.93;;;5.95;;
27939;SDS011;15275;51.716;14.324;2023-05-20T00:29:42;8.70;;;5.40;;
27939;SDS011;15275;51.716;14.324;2023-05-20T00:32:08;7.30;;;5.07;;
27939;SDS011;15275;51.716;14.324;2023-05-20T00:34:33;9.10;;;5.45;;
27939;SDS011;15275;51.716;14.324;2023-05-20T00:36:59;12.27;;;5.43;;
27939;SDS011;15275;51.716;14.324;2023-05-20T00:39:25;6.90;;;4.68;;
27939;SDS011;15275;51.716;14.324;2023-05-20T00:41:51;9.38;;;5.65;;
27939;SDS011;15275;51.716;14.324;2023-05-20T00:44:17;6.53;;;4.32;;
27939;SDS011;15275;51.716;14.324;2023-05-20T00:46:43;8.75;;;5.68;;
27939;SDS011;15275;51.716;14.324;2023-05-20T00:49:10;7.63;;;5.28;;
27939;SDS011;15275;51.716;14.324;2023-05-20T00:51:36;9.48;;;5.70;;
27939;SDS011;15275;51.716;14.324;2023-05-20T00:54:02;9.30;;;6.03;;
27939;SDS011;15275;51.716;14.324;2023-05-20T00:56:28;12.10;;;6.03;;
27939;SDS011;15275;51.716;14.324;2023-05-20T00:58:54;7.80;;;5.28;;
27939;SDS011;15275;51.716;14.324;2023-05-20T01:01:20;8.40;;;5.90;;
27939;SDS011;15275;51.716;14.324;2023-05-20T01:03:46;10.00;;;6.13;;
27939;SDS011;15275;51.716;14.324;2023-05-20T01:06:12;9.52;;;5.45;;
27939;SDS011;15275;51.716;14.324;2023-05-20T01:08:38;9.30;;;5.80;;
27939;SDS011;15275;51.716;14.324;2023-05-20T01:13:44;10.35;;;6.07;;
27939;SDS011;15275;51.716;14.324;2023-05-20T01:16:16;10.30;;;6.03;;
27939;SDS011;15275;51.716;14.324;2023-05-20T01:18:44;10.50;;;5.30;;
27939;SDS011;15275;51.716;14.324;2023-05-20T01:21:12;10.50;;;6.18;;
27939;SDS011;15275;51.716;14.324;2023-05-20T01:23:40;7.95;;;5.55;;
27939;SDS011;15275;51.716;14.324;2023-05-20T01:26:06;12.05;;;5.95;;
27939;SDS011;15275;51.716;14.324;2023-05-20T01:28:34;10.32;;;6.15;;
27939;SDS011;15275;51.716;14.324;2023-05-20T01:31:04;7.88;;;5.70;;
27939;SDS011;15275;51.716;14.324;2023-05-20T01:33:40;12.40;;;6.00;;
27939;SDS011;15275;51.716;14.324;2023-05-20T01:36:07;13.35;;;6.43;;
27939;SDS011;15275;51.716;14.324;2023-05-20T01:38:35;9.88;;;5.57;;
27939;SDS011;15275;51.716;14.324;2023-05-20T01:41:03;15.73;;;6.45;;
27939;SDS011;15275;51.716;14.324;2023-05-20T01:43:29;9.07;;;6.15;;
27939;SDS011;15275;51.716;14.324;2023-05-20T01:45:55;9.32;;;6.13;;
27939;SDS011;15275;51.716;14.324;2023-05-20T01:48:21;12.88;;;6.43;;
27939;SDS011;15275;51.716;14.324;2023-05-20T01:50:47;8.52;;;5.63;;
27939;SDS011;15275;51.716;14.324;2023-05-20T01:53:13;11.23;;;6.07;;
27939;SDS011;15275;51.716;14.324;2023-05-20T01:55:39;9.85;;;6.28;;
27939;SDS011;15275;51.716;14.324;2023-05-20T01:58:05;10.73;;;6.93;;
27939;SDS011;15275;51.716;14.324;2023-05-20T02:00:31;11.05;;;5.82;;
27939;SDS011;15275;51.716;14.324;2023-05-20T02:02:58;10.55;;;6.38;;
27939;SDS011;15275;51.716;14.324;2023-05-20T02:05:24;13.85;;;6.55;;
27939;SDS011;15275;51.716;14.324;2023-05-20T02:07:50;9.75;;;6.32;;
27939;SDS011;15275;51.716;14.324;2023-05-20T02:10:16;9.43;;;6.80;;
27939;SDS011;15275;51.716;14.324;2023-05-20T02:12:42;10.57;;;6.72;;
27939;SDS011;15275;51.716;14.324;2023-05-20T02:15:07;13.02;;;7.05;;
27939;SDS011;15275;51.716;14.324;2023-05-20T02:17:34;14.70;;;7.25;;
27939;SDS011;15275;51.716;14.324;2023-05-20T02:20:00;12.23;;;6.40;;
27939;SDS011;15275;51.716;14.324;2023-05-20T02:22:26;10.77;;;7.45;;
27939;SDS011;15275;51.716;14.324;2023-05-20T02:24:51;11.82;;;7.25;;
27939;SDS011;15275;51.716;14.324;2023-05-20T02:27:17;11.05;;;7.20;;
27939;SDS011;15275;51.716;14.324;2023-05-20T02:29:43;13.75;;;7.00;;
27939;SDS011;15275;51.716;14.324;2023-05-20T02:32:09;10.45;;;7.18;;
27939;SDS011;15275;51.716;14.324;2023-05-20T02:34:35;11.63;;;7.60;;
27939;SDS011;15275;51.716;14.324;2023-05-20T02:37:00;11.85;;;7.00;;
27939;SDS011;15275;51.716;14.324;2023-05-20T02:39:26;10.82;;;7.00;;
27939;SDS011;15275;51.716;14.324;2023-05-20T02:41:52;10.82;;;7.03;;
27939;SDS011;15275;51.716;14.324;2023-05-20T02:44:18;16.75;;;7.63;;
27939;SDS011;15275;51.716;14.324;2023-05-20T02:46:44;10.70;;;6.78;;
27939;SDS011;15275;51.716;14.324;2023-05-20T02:49:10;10.70;;;7.63;;
27939;SDS011;15275;51.716;14.324;2023-05-20T02:51:35;9.68;;;6.53;;
27939;SDS011;15275;51.716;14.324;2023-05-20T02:54:01;13.25;;;7.35;;
27939;SDS011;15275;51.716;14.324;2023-05-20T02:56:27;12.05;;;8.43;;
27939;SDS011;15275;51.716;14.324;2023-05-20T02:58:53;14.40;;;8.82;;
27939;SDS011;15275;51.716;14.324;2023-05-20T03:01:19;16.40;;;8.45;;
27939;SDS011;15275;51.716;14.324;2023-05-20T03:03:45;15.90;;;8.02;;
27939;SDS011;15275;51.716;14.324;2023-05-20T03:06:11;12.57;;;7.28;;
27939;SDS011;15275;51.716;14.324;2023-05-20T03:08:36;12.15;;;6.97;;
27939;SDS011;15275;51.716;14.324;2023-05-20T03:11:03;14.60;;;8.45;;
27939;SDS011;15275;51.716;14.324;2023-05-20T03:13:29;11.05;;;7.68;;
27939;SDS011;15275;51.716;14.324;2023-05-20T03:15:55;14.77;;;7.68;;
27939;SDS011;15275;51.716;14.324;2023-05-20T03:18:21;12.73;;;8.27;;
27939;SDS011;15275;51.716;14.324;2023-05-20T03:20:47;11.30;;;7.80;;
27939;SDS011;15275;51.716;14.324;2023-05-20T03:23:12;13.60;;;8.20;;
27939;SDS011;15275;51.716;14.324;2023-05-20T03:25:39;16.17;;;8.52;;
27939;SDS011;15275;51.716;14.324;2023-05-20T03:28:05;13.93;;;8.45;;
27939;SDS011;15275;51.716;14.324;2023-05-20T03:30:31;13.02;;;8.10;;
27939;SDS011;15275;51.716;14.324;2023-05-20T03:32:57;21.63;;;8.07;;
27939;SDS011;15275;51.716;14.324;2023-05-20T03:35:23;16.00;;;7.97;;
27939;SDS011;15275;51.716;14.324;2023-05-20T03:37:52;15.10;;;8.30;;
27939;SDS011;15275;51.716;14.324;2023-05-20T03:40:18;11.23;;;7.85;;
27939;SDS011;15275;51.716;14.324;2023-05-20T03:42:45;13.75;;;8.20;;
27939;SDS011;15275;51.716;14.324;2023-05-20T03:45:11;14.73;;;8.70;;
27939;SDS011;15275;51.716;14.324;2023-05-20T03:47:37;18.38;;;8.13;;
27939;SDS011;15275;51.716;14.324;2023-05-20T03:50:03;20.08;;;9.27;;
27939;SDS011;15275;51.716;14.324;2023-05-20T03:52:30;12.20;;;7.97;;
27939;SDS011;15275;51.716;14.324;2023-05-20T03:54:55;14.27;;;7.80;;
27939;SDS011;15275;51.716;14.324;2023-05-20T03:57:21;13.40;;;8.07;;
27939;SDS011;15275;51.716;14.324;2023-05-20T03:59:47;12.13;;;7.95;;
27939;SDS011;15275;51.716;14.324;2023-05-20T04:02:13;15.00;;;8.80;;
27939;SDS011;15275;51.716;14.324;2023-05-20T04:04:39;13.23;;;8.25;;
27939;SDS011;15275;51.716;14.324;2023-05-20T04:07:07;15.50;;;7.55;;
27939;SDS011;15275;51.716;14.324;2023-05-20T04:09:33;12.18;;;7.68;;
27939;SDS011;15275;51.716;14.324;2023-05-20T04:12:00;16.25;;;8.18;;
27939;SDS011;15275;51.716;14.324;2023-05-20T04:14:25;11.20;;;7.07;;
27939;SDS011;15275;51.716;14.324;2023-05-20T04:16:51;15.43;;;8.55;;
27939;SDS011;15275;51.716;14.324;2023-05-20T04:19:17;14.30;;;8.68;;
27939;SDS011;15275;51.716;14.324;2023-05-20T04:21:43;13.57;;;8.70;;
27939;SDS011;15275;51.716;14.324;2023-05-20T04:24:09;16.17;;;8.85;;
27939;SDS011;15275;51.716;14.324;2023-05-20T04:26:35;15.32;;;8.95;;
27939;SDS011;15275;51.716;14.324;2023-05-20T04:29:02;16.70;;;9.02;;
27939;SDS011;15275;51.716;14.324;2023-05-20T04:31:31;13.60;;;8.95;;
27939;SDS011;15275;51.716;14.324;2023-05-20T04:33:57;15.60;;;9.25;;
27939;SDS011;15275;51.716;14.324;2023-05-20T04:36:23;13.65;;;8.60;;
27939;SDS011;15275;51.716;14.324;2023-05-20T04:38:55;16.23;;;9.02;;
27939;SDS011;15275;51.716;14.324;2023-05-20T04:41:21;13.70;;;9.00;;
27939;SDS011;15275;51.716;14.324;2023-05-20T04:43:48;15.45;;;10.60;;
27939;SDS011;15275;51.716;14.324;2023-05-20T04:46:14;18.02;;;10.00;;
27939;SDS011;15275;51.716;14.324;2023-05-20T04:48:40;18.63;;;9.13;;
27939;SDS011;15275;51.716;14.324;2023-05-20T04:51:08;15.25;;;10.05;;
27939;SDS011;15275;51.716;14.324;2023-05-20T04:53:34;17.10;;;10.07;;
27939;SDS011;15275;51.716;14.324;2023-05-20T04:56:00;19.85;;;10.57;;
27939;SDS011;15275;51.716;14.324;2023-05-20T04:58:27;13.48;;;9.32;;
27939;SDS011;15275;51.716;14.324;2023-05-20T05:00:53;15.98;;;9.93;;
27939;SDS011;15275;51.716;14.324;2023-05-20T05:03:20;20.70;;;11.25;;
27939;SDS011;15275;51.716;14.324;2023-05-20T05:05:46;18.60;;;11.68;;
27939;SDS011;15275;51.716;14.324;2023-05-20T05:08:12;18.27;;;11.45;;
27939;SDS011;15275;51.716;14.324;2023-05-20T05:10:38;18.05;;;10.80;;
27939;SDS011;15275;51.716;14.324;2023-05-20T05:13:04;18.15;;;10.88;;
27939;SDS011;15275;51.716;14.324;2023-05-20T05:15:30;17.15;;;10.38;;
27939;SDS011;15275;51.716;14.324;2023-05-20T05:17:56;24.70;;;11.43;;
27939;SDS011;15275;51.716;14.324;2023-05-20T05:20:22;21.17;;;11.70;;
27939;SDS011;15275;51.716;14.324;2023-05-20T05:22:48;21.00;;;12.48;;
27939;SDS011;15275;51.716;14.324;2023-05-20T05:25:15;20.05;;;11.65;;
27939;SDS011;15275;51.716;14.324;2023-05-20T05:27:41;18.27;;;10.60;;
27939;SDS011;15275;51.716;14.324;2023-05-20T05:30:08;20.63;;;12.10;;
27939;SDS011;15275;51.716;14.324;2023-05-20T05:32:35;20.83;;;11.70;;
27939;SDS011;15275;51.716;14.324;2023-05-20T05:35:02;20.58;;;12.40;;
27939;SDS011;15275;51.716;14.324;2023-05-20T05:37:28;22.33;;;12.27;;
27939;SDS011;15275;51.716;14.324;2023-05-20T05:39:54;18.98;;;11.32;;
27939;SDS011;15275;51.716;14.324;2023-05-20T05:42:20;21.88;;;12.30;;
27939;SDS011;15275;51.716;14.324;2023-05-20T05:44:46;21.30;;;11.85;;
27939;SDS011;15275;51.716;14.324;2023-05-20T05:47:12;21.48;;;11.70;;
27939;SDS011;15275;51.716;14.324;2023-05-20T05:49:39;19.83;;;12.50;;
27939;SDS011;15275;51.716;14.324;2023-05-20T05:52:05;18.58;;;11.82;;
27939;SDS011;15275;51.716;14.324;2023-05-20T05:54:31;22.02;;;12.13;;
27939;SDS011;15275;51.716;14.324;2023-05-20T05:56:56;20.30;;;12.27;;
27939;SDS011;15275;51.716;14.324;2023-05-20T05:59:22;20.15;;;11.55;;
27939;SDS011;15275;51.716;14.324;2023-05-20T06:01:48;21.70;;;11.95;;
27939;SDS011;15275;51.716;14.324;2023-05-20T06:04:14;21.02;;;12.80;;
27939;SDS011;15275;51.716;14.324;2023-05-20T06:06:40;21.98;;;12.80;;
27939;SDS011;15275;51.716;14.324;2023-05-20T06:09:06;21.33;;;12.52;;
27939;SDS011;15275;51.716;14.324;2023-05-20T06:11:32;24.60;;;13.27;;
27939;SDS011;15275;51.716;14.324;2023-05-20T06:13:57;16.80;;;11.90;;
27939;SDS011;15275;51.716;14.324;2023-05-20T06:16:24;18.17;;;12.63;;
27939;SDS011;15275;51.716;14.324;2023-05-20T06:18:50;25.13;;;13.75;;
27939;SDS011;15275;51.716;14.324;2023-05-20T06:21:17;22.17;;;13.30;;
27939;SDS011;15275;51.716;14.324;2023-05-20T06:23:42;22.88;;;13.20;;
27939;SDS011;15275;51.716;14.324;2023-05-20T06:26:08;22.83;;;13.50;;
27939;SDS011;15275;51.716;14.324;2023-05-20T06:28:34;19.58;;;12.77;;
27939;SDS011;15275;51.716;14.324;2023-05-20T06:31:00;20.63;;;13.32;;
27939;SDS011;15275;51.716;14.324;2023-05-20T06:33:26;23.58;;;13.63;;
27939;SDS011;15275;51.716;14.324;2023-05-20T06:35:53;21.45;;;13.30;;
27939;SDS011;15275;51.716;14.324;2023-05-20T06:38:20;23.33;;;13.55;;
27939;SDS011;15275;51.716;14.324;2023-05-20T06:40:47;24.50;;;14.27;;
27939;SDS011;15275;51.716;14.324;2023-05-20T06:43:13;28.08;;;14.85;;
27939;SDS011;15275;51.716;14.324;2023-05-20T06:45:40;22.52;;;14.88;;
27939;SDS011;15275;51.716;14.324;2023-05-20T06:48:06;22.45;;;13.80;;
27939;SDS011;15275;51.716;14.324;2023-05-20T06:50:32;22.65;;;14.55;;
27939;SDS011;15275;51.716;14.324;2023-05-20T06:52:58;26.35;;;15.15;;
27939;SDS011;15275;51.716;14.324;2023-05-20T06:55:25;24.35;;;13.82;;
27939;SDS011;15275;51.716;14.324;2023-05-20T06:57:51;25.42;;;14.75;;
27939;SDS011;15275;51.716;14.324;2023-05-20T07:00:17;26.70;;;14.82;;
27939;SDS011;15275;51.716;14.324;2023-05-20T07:02:43;22.95;;;14.52;;
27939;SDS011;15275;51.716;14.324;2023-05-20T07:05:10;24.88;;;15.35;;
27939;SDS011;15275;51.716;14.324;2023-05-20T07:07:36;24.13;;;13.50;;
27939;SDS011;15275;51.716;14.324;2023-05-20T07:10:03;23.30;;;14.70;;
27939;SDS011;15275;51.716;14.324;2023-05-20T07:12:30;25.65;;;14.77;;
27939;SDS011;15275;51.716;14.324;2023-05-20T07:14:57;22.60;;;14.25;;
27939;SDS011;15275;51.716;14.324;2023-05-20T07:17:23;21.58;;;13.50;;
27939;SDS011;15275;51.716;14.324;2023-05-20T07:19:49;23.58;;;13.80;;
27939;SDS011;15275;51.716;14.324;2023-05-20T07:22:15;23.67;;;14.43;;
27939;SDS011;15275;51.716;14.324;2023-05-20T07:24:41;21.88;;;13.60;;
27939;SDS011;15275;51.716;14.324;2023-05-20T07:27:07;21.58;;;14.05;;
27939;SDS011;15275;51.716;14.324;2023-05-20T07:29:34;21.85;;;13.80;;
27939;SDS011;15275;51.716;14.324;2023-05-20T07:32:01;26.23;;;14.57;;
27939;SDS011;15275;51.716;14.324;2023-05-20T07:34:28;22.25;;;14.57;;
27939;SDS011;15275;51.716;14.324;2023-05-20T07:36:53;23.20;;;13.10;;
27939;SDS011;15275;51.716;14.324;2023-05-20T07:39:21;21.90;;;13.82;;
27939;SDS011;15275;51.716;14.324;2023-05-20T07:41:47;25.52;;;15.70;;
27939;SDS011;15275;51.716;14.324;2023-05-20T07:44:13;25.02;;;15.00;;
27939;SDS011;15275;51.716;14.324;2023-05-20T07:46:39;25.25;;;15.40;;
27939;SDS011;15275;51.716;14.324;2023-05-20T07:49:08;23.05;;;15.50;;
27939;SDS011;15275;51.716;14.324;2023-05-20T07:51:34;25.88;;;16.20;;
27939;SDS011;15275;51.716;14.324;2023-05-20T07:54:00;22.92;;;15.40;;
27939;SDS011;15275;51.716;14.324;2023-05-20T07:56:26;24.48;;;15.70;;
27939;SDS011;15275;51.716;14.324;2023-05-20T07:58:53;21.95;;;13.98;;
27939;SDS011;15275;51.716;14.324;2023-05-20T08:01:23;25.75;;;14.73;;
27939;SDS011;15275;51.716;14.324;2023-05-20T08:03:50;24.73;;;15.25;;
27939;SDS011;15275;51.716;14.324;2023-05-20T08:06:17;27.02;;;15.38;;
27939;SDS011;15275;51.716;14.324;2023-05-20T08:08:44;25.05;;;16.30;;
27939;SDS011;15275;51.716;14.324;2023-05-20T08:11:11;25.45;;;16.13;;
27939;SDS011;15275;51.716;14.324;2023-05-20T08:13:37;25.70;;;16.65;;
27939;SDS011;15275;51.716;14.324;2023-05-20T08:16:04;30.20;;;17.58;;
27939;SDS011;15275;51.716;14.324;2023-05-20T08:18:31;29.95;;;17.80;;
27939;SDS011;15275;51.716;14.324;2023-05-20T08:20:59;29.17;;;17.77;;
27939;SDS011;15275;51.716;14.324;2023-05-20T08:23:24;31.45;;;18.60;;
27939;SDS011;15275;51.716;14.324;2023-05-20T08:25:50;28.95;;;17.02;;
27939;SDS011;15275;51.716;14.324;2023-05-20T08:28:16;26.38;;;16.08;;
27939;SDS011;15275;51.716;14.324;2023-05-20T08:30:42;25.35;;;15.85;;
27939;SDS011;15275;51.716;14.324;2023-05-20T08:33:08;28.13;;;17.55;;
27939;SDS011;15275;51.716;14.324;2023-05-20T08:35:35;26.60;;;17.13;;
27939;SDS011;15275;51.716;14.324;2023-05-20T08:38:03;25.08;;;16.20;;
27939;SDS011;15275;51.716;14.324;2023-05-20T08:40:29;27.00;;;16.92;;
27939;SDS011;15275;51.716;14.324;2023-05-20T08:42:55;27.25;;;17.75;;
27939;SDS011;15275;51.716;14.324;2023-05-20T08:45:23;29.30;;;18.02;;
27939;SDS011;15275;51.716;14.324;2023-05-20T08:47:52;29.60;;;17.00;;
27939;SDS011;15275;51.716;14.324;2023-05-20T08:50:19;26.67;;;17.50;;
27939;SDS011;15275;51.716;14.324;2023-05-20T08:52:46;28.50;;;17.88;;
27939;SDS011;15275;51.716;14.324;2023-05-20T08:55:29;28.27;;;16.88;;
27939;SDS011;15275;51.716;14.324;2023-05-20T08:58:08;28.90;;;16.00;;
27939;SDS011;15275;51.716;14.324;2023-05-20T09:00:34;26.92;;;16.52;;
27939;SDS011;15275;51.716;14.324;2023-05-20T09:03:00;28.25;;;16.95;;
27939;SDS011;15275;51.716;14.324;2023-05-20T09:05:27;27.20;;;17.63;;
27939;SDS011;15275;51.716;14.324;2023-05-20T09:08:03;26.17;;;17.25;;
27939;SDS011;15275;51.716;14.324;2023-05-20T09:10:33;27.25;;;17.15;;
27939;SDS011;15275;51.716;14.324;2023-05-20T09:13:00;29.92;;;16.88;;
27939;SDS011;15275;51.716;14.324;2023-05-20T09:15:28;26.10;;;16.95;;
27939;SDS011;15275;51.716;14.324;2023-05-20T09:18:04;28.58;;;17.02;;
27939;SDS011;15275;51.716;14.324;2023-05-20T09:20:33;27.15;;;15.70;;
27939;SDS011;15275;51.716;14.324;2023-05-20T09:23:05;24.83;;;15.70;;
27939;SDS011;15275;51.716;14.324;2023-05-20T09:25:33;26.23;;;15.82;;
27939;SDS011;15275;51.716;14.324;2023-05-20T09:28:06;26.40;;;17.95;;
27939;SDS011;15275;51.716;14.324;2023-05-20T09:30:32;24.10;;;15.73;;
27939;SDS011;15275;51.716;14.324;2023-05-20T09:32:59;26.08;;;16.77;;
27939;SDS011;15275;51.716;14.324;2023-05-20T09:35:27;25.92;;;16.33;;
27939;SDS011;15275;51.716;14.324;2023-05-20T09:37:54;23.85;;;16.48;;
27939;SDS011;15275;51.716;14.324;2023-05-20T09:40:23;28.02;;;16.05;;
27939;SDS011;15275;51.716;14.324;2023-05-20T09:42:56;24.83;;;16.45;;
27939;SDS011;15275;51.716;14.324;2023-05-20T09:45:27;28.45;;;18.50;;
27939;SDS011;15275;51.716;14.324;2023-05-20T09:47:53;28.90;;;17.08;;
27939;SDS011;15275;51.716;14.324;2023-05-20T09:50:23;27.55;;;18.15;;
27939;SDS011;15275;51.716;14.324;2023-05-20T09:52:51;29.35;;;18.70;;
27939;SDS011;15275;51.716;14.324;2023-05-20T09:55:18;28.05;;;16.70;;
27939;SDS011;15275;51.716;14.324;2023-05-20T09:57:46;21.88;;;16.08;;
27939;SDS011;15275;51.716;14.324;2023-05-20T10:00:13;30.65;;;19.42;;
27939;SDS011;15275;51.716;14.324;2023-05-20T10:02:45;30.85;;;17.75;;
27939;SDS011;15275;51.716;14.324;2023-05-20T10:05:21;25.08;;;17.23;;
27939;SDS011;15275;51.716;14.324;2023-05-20T10:14:05;17.98;;;13.27;;
27939;SDS011;15275;51.716;14.324;2023-05-20T10:20:05;23.55;;;13.93;;
27939;SDS011;15275;51.716;14.324;2023-05-20T10:25:05;20.05;;;12.73;;
27939;SDS011;15275;51.716;14.324;2023-05-20T10:27:43;18.98;;;13.43;;
27939;SDS011;15275;51.716;14.324;2023-05-20T10:30:18;16.85;;;12.15;;
27939;SDS011;15275;51.716;14.324;2023-05-20T10:32:52;17.92;;;12.63;;
27939;SDS011;15275;51.716;14.324;2023-05-20T10:35:22;20.20;;;13.68;;
27939;SDS011;15275;51.716;14.324;2023-05-20T10:37:53;18.98;;;12.70;;
27939;SDS011;15275;51.716;14.324;2023-05-20T10:40:31;19.23;;;12.93;;
27939;SDS011;15275;51.716;14.324;2023-05-20T10:43:07;18.52;;;12.32;;
27939;SDS011;15275;51.716;14.324;2023-05-20T10:45:47;18.30;;;12.18;;
27939;SDS011;15275;51.716;14.324;2023-05-20T10:48:27;16.77;;;12.18;;
27939;SDS011;15275;51.716;14.324;2023-05-20T10:51:00;18.20;;;12.23;;
27939;SDS011;15275;51.716;14.324;2023-05-20T10:53:40;15.65;;;12.18;;
27939;SDS011;15275;51.716;14.324;2023-05-20T10:56:16;16.92;;;11.77;;
27939;SDS011;15275;51.716;14.324;2023-05-20T10:58:44;19.35;;;12.93;;
27939;SDS011;15275;51.716;14.324;2023-05-20T11:01:10;22.70;;;13.57;;
27939;SDS011;15275;51.716;14.324;2023-05-20T11:03:38;18.27;;;13.18;;
27939;SDS011;15275;51.716;14.324;2023-05-20T11:06:15;21.88;;;13.07;;
27939;SDS011;15275;51.716;14.324;2023-05-20T11:08:42;19.73;;;13.40;;
27939;SDS011;15275;51.716;14.324;2023-05-20T11:11:13;17.58;;;12.73;;
27939;SDS011;15275;51.716;14.324;2023-05-20T11:13:39;19.70;;;12.93;;
27939;SDS011;15275;51.716;14.324;2023-05-20T11:16:05;17.75;;;13.32;;
27939;SDS011;15275;51.716;14.324;2023-05-20T11:18:31;16.75;;;13.02;;
27939;SDS011;15275;51.716;14.324;2023-05-20T11:21:01;17.48;;;13.57;;
27939;SDS011;15275;51.716;14.324;2023-05-20T11:23:27;21.02;;;13.02;;
27939;SDS011;15275;51.716;14.324;2023-05-20T11:25:54;21.60;;;13.15;;
27939;SDS011;15275;51.716;14.324;2023-05-20T11:28:21;16.67;;;12.80;;
27939;SDS011;15275;51.716;14.324;2023-05-20T11:30:48;20.30;;;13.70;;
27939;SDS011;15275;51.716;14.324;2023-05-20T11:33:16;19.23;;;12.77;;
27939;SDS011;15275;51.716;14.324;2023-05-20T11:35:46;17.70;;;12.20;;
27939;SDS011;15275;51.716;14.324;2023-05-20T11:38:16;23.17;;;13.45;;
27939;SDS011;15275;51.716;14.324;2023-05-20T11:40:50;18.73;;;14.18;;
27939;SDS011;15275;51.716;14.324;2023-05-20T11:43:18;21.55;;;13.77;;
27939;SDS011;15275;51.716;14.324;2023-05-20T11:46:06;21.88;;;14.90;;
27939;SDS011;15275;51.716;14.324;2023-05-20T11:48:31;19.48;;;13.75;;
27939;SDS011;15275;51.716;14.324;2023-05-20T11:50:57;18.65;;;13.13;;
27939;SDS011;15275;51.716;14.324;2023-05-20T11:53:23;25.30;;;15.90;;
27939;SDS011;15275;51.716;14.324;2023-05-20T11:55:50;19.98;;;15.48;;
27939;SDS011;15275;51.716;14.324;2023-05-20T11:58:25;20.48;;;15.35;;
27939;SDS011;15275;51.716;14.324;2023-05-20T12:00:53;23.83;;;16.48;;
27939;SDS011;15275;51.716;14.324;2023-05-20T12:03:20;23.00;;;16.92;;
27939;SDS011;15275;51.716;14.324;2023-05-20T12:05:46;23.30;;;17.15;;
27939;SDS011;15275;51.716;14.324;2023-05-20T12:08:12;23.67;;;16.60;;
27939;SDS011;15275;51.716;14.324;2023-05-20T12:10:39;26.38;;;18.38;;
27939;SDS011;15275;51.716;14.324;2023-05-20T12:13:04;24.83;;;17.63;;
27939;SDS011;15275;51.716;14.324;2023-05-20T12:15:36;23.35;;;17.13;;
27939;SDS011;15275;51.716;14.324;2023-05-20T12:18:02;23.65;;;17.25;;
27939;SDS011;15275;51.716;14.324;2023-05-20T12:20:28;22.88;;;16.85;;
27939;SDS011;15275;51.716;14.324;2023-05-20T12:22:58;20.15;;;15.65;;
27939;SDS011;15275;51.716;14.324;2023-05-20T12:25:25;21.25;;;15.68;;
27939;SDS011;15275;51.716;14.324;2023-05-20T12:27:51;22.73;;;16.83;;
27939;SDS011;15275;51.716;14.324;2023-05-20T12:30:18;22.92;;;17.10;;
27939;SDS011;15275;51.716;14.324;2023-05-20T12:32:46;22.73;;;17.02;;
27939;SDS011;15275;51.716;14.324;2023-05-20T12:35:14;24.42;;;16.77;;
27939;SDS011;15275;51.716;14.324;2023-05-20T12:37:41;23.05;;;15.98;;
27939;SDS011;15275;51.716;14.324;2023-05-20T12:40:08;22.80;;;18.30;;
27939;SDS011;15275;51.716;14.324;2023-05-20T12:42:40;21.45;;;16.48;;
27939;SDS011;15275;51.716;14.324;2023-05-20T12:45:06;19.73;;;15.40;;
27939;SDS011;15275;51.716;14.324;2023-05-20T12:47:34;24.52;;;17.38;;
27939;SDS011;15275;51.716;14.324;2023-05-20T12:50:00;25.75;;;17.88;;
27939;SDS011;15275;51.716;14.324;2023-05-20T12:52:27;22.83;;;17.75;;
27939;SDS011;15275;51.716;14.324;2023-05-20T12:54:53;25.63;;;17.98;;
27939;SDS011;15275;51.716;14.324;2023-05-20T12:57:20;23.65;;;17.77;;
27939;SDS011;15275;51.716;14.324;2023-05-20T12:59:46;27.67;;;18.80;;
27939;SDS011;15275;51.716;14.324;2023-05-20T13:02:12;23.02;;;17.42;;
27939;SDS011;15275;51.716;14.324;2023-05-20T13:04:37;26.63;;;18.52;;
27939;SDS011;15275;51.716;14.324;2023-05-20T13:07:03;22.40;;;16.83;;
27939;SDS011;15275;51.716;14.324;2023-05-20T13:09:29;22.35;;;17.77;;
27939;SDS011;15275;51.716;14.324;2023-05-20T13:11:56;26.60;;;17.75;;
27939;SDS011;15275;51.716;14.324;2023-05-20T13:14:22;22.98;;;17.75;;
27939;SDS011;15275;51.716;14.324;2023-05-20T13:16:48;24.70;;;19.00;;
27939;SDS011;15275;51.716;14.324;2023-05-20T13:19:18;25.35;;;18.77;;
27939;SDS011;15275;51.716;14.324;2023-05-20T13:21:50;22.35;;;18.58;;
27939;SDS011;15275;51.716;14.324;2023-05-20T13:24:18;24.08;;;18.45;;
27939;SDS011;15275;51.716;14.324;2023-05-20T13:26:44;26.70;;;19.38;;
27939;SDS011;15275;51.716;14.324;2023-05-20T13:29:10;28.23;;;20.67;;
27939;SDS011;15275;51.716;14.324;2023-05-20T13:31:37;28.98;;;20.73;;
27939;SDS011;15275;51.716;14.324;2023-05-20T13:34:03;31.98;;;22.20;;
27939;SDS011;15275;51.716;14.324;2023-05-20T13:36:29;28.60;;;21.25;;
27939;SDS011;15275;51.716;14.324;2023-05-20T13:38:56;25.58;;;20.75;;
27939;SDS011;15275;51.716;14.324;2023-05-20T13:41:22;30.17;;;21.85;;
27939;SDS011;15275;51.716;14.324;2023-05-20T13:43:52;31.48;;;21.58;;
27939;SDS011;15275;51.716;14.324;2023-05-20T13:46:17;29.27;;;21.73;;
27939;SDS011;15275;51.716;14.324;2023-05-20T13:48:43;30.27;;;20.55;;
27939;SDS011;15275;51.716;14.324;2023-05-20T13:51:09;29.15;;;21.40;;
27939;SDS011;15275;51.716;14.324;2023-05-20T13:53:35;28.05;;;20.92;;
27939;SDS011;15275;51.716;14.324;2023-05-20T13:56:01;27.40;;;20.80;;
27939;SDS011;15275;51.716;14.324;2023-05-20T13:58:27;29.77;;;20.67;;
27939;SDS011;15275;51.716;14.324;2023-05-20T14:00:52;27.90;;;20.42;;
27939;SDS011;15275;51.716;14.324;2023-05-20T14:03:18;27.27;;;20.63;;
27939;SDS011;15275;51.716;14.324;2023-05-20T14:05:44;25.40;;;19.75;;
27939;SDS011;15275;51.716;14.324;2023-05-20T14:08:11;23.73;;;18.60;;
27939;SDS011;15275;51.716;14.324;2023-05-20T14:10:37;24.52;;;19.40;;
27939;SDS011;15275;51.716;14.324;2023-05-20T14:13:03;25.45;;;19.30;;
27939;SDS011;15275;51.716;14.324;2023-05-20T14:15:28;25.17;;;18.95;;
27939;SDS011;15275;51.716;14.324;2023-05-20T14:17:58;24.10;;;18.58;;
27939;SDS011;15275;51.716;14.324;2023-05-20T14:20:24;24.30;;;18.48;;
27939;SDS011;15275;51.716;14.324;2023-05-20T14:22:53;26.35;;;18.58;;
27939;SDS011;15275;51.716;14.324;2023-05-20T14:25:19;22.10;;;17.55;;
27939;SDS011;15275;51.716;14.324;2023-05-20T14:27:45;25.88;;;18.48;;